Time;durP1;ratioP1;P1;durP2;ratioP2;P2;SDS_P1;SDS_P2;PMS_P1;PMS_P2;Temp;Humidity;BMP_temperature;BMP_pressure;BME280_temperature;BME280_humidity;BME280_pressure;Samples;Min_cycle;Max_cycle;Signal;HPM_P1;HPM_P2
2022/12/21 00:01:45;;;;;;;49.25;23.33;;;8.40;99.90;;;;;;5009222;28;20100;-68
2022/12/21 00:04:10;;;;;;;50.42;23.27;;;8.40;99.90;;;;;;5004197;28;20033;-68
2022/12/21 00:06:38;;;;;;;52.38;22.77;;;8.40;99.90;;;;;;5006100;28;20026;-68
2022/12/21 00:09:07;;;;;;;51.53;22.40;;;8.40;99.90;;;;;;5010218;28;20038;-69
2022/12/21 00:11:34;;;;;;;44.65;21.55;;;8.40;99.90;;;;;;4993019;28;20120;-69
2022/12/21 00:14:00;;;;;;;46.28;22.08;;;8.40;99.90;;;;;;5009282;28;20531;-70
2022/12/21 00:16:28;;;;;;;45.90;22.65;;;8.40;99.90;;;;;;5004013;28;20417;-73
2022/12/21 00:18:55;;;;;;;54.53;24.17;;;8.40;99.90;;;;;;5004445;28;20478;-68
2022/12/21 00:21:23;;;;;;;49.53;23.20;;;8.30;99.90;;;;;;5008366;28;20054;-69
2022/12/21 00:23:50;;;;;;;47.03;21.88;;;8.40;99.90;;;;;;5009289;28;20025;-70
2022/12/21 00:26:18;;;;;;;47.33;24.35;;;8.40;99.90;;;;;;5009384;28;20061;-69
2022/12/21 00:28:44;;;;;;;42.00;20.67;;;8.40;99.90;;;;;;5009328;28;20030;-69
2022/12/21 00:31:17;;;;;;;55.15;22.48;;;8.40;99.90;;;;;;5003353;28;20363;-70
2022/12/21 00:33:44;;;;;;;45.80;21.33;;;8.40;99.90;;;;;;5004187;28;20050;-71
2022/12/21 00:36:12;;;;;;;51.75;21.27;;;8.30;99.90;;;;;;5007059;28;20034;-70
2022/12/21 00:38:38;;;;;;;52.55;22.10;;;8.30;99.90;;;;;;5006490;28;20057;-68
2022/12/21 00:41:07;;;;;;;48.65;21.20;;;8.30;99.90;;;;;;5006067;28;20077;-69
2022/12/21 00:43:35;;;;;;;43.47;21.48;;;8.30;99.90;;;;;;5009832;28;20176;-69
2022/12/21 00:46:02;;;;;;;40.78;19.63;;;8.30;99.90;;;;;;5009282;28;20100;-71
2022/12/21 00:48:28;;;;;;;54.28;22.00;;;8.30;99.90;;;;;;5011500;28;20042;-69
2022/12/21 00:51:02;;;;;;;48.05;20.48;;;8.30;99.90;;;;;;5003614;28;20038;-68
2022/12/21 00:53:27;;;;;;;48.90;20.83;;;8.30;99.90;;;;;;5008492;28;20026;-68
2022/12/21 00:55:55;;;;;;;55.70;21.80;;;8.30;99.90;;;;;;5011467;28;20645;-69
2022/12/21 00:58:21;;;;;;;47.97;20.10;;;8.30;99.90;;;;;;5014965;28;20026;-69
2022/12/21 01:00:46;;;;;;;41.53;19.83;;;8.30;99.90;;;;;;5015664;28;20036;-68
2022/12/21 01:03:12;;;;;;;46.15;20.10;;;8.30;99.90;;;;;;5013224;28;20565;-69
2022/12/21 01:05:37;;;;;;;53.88;22.00;;;8.30;99.90;;;;;;5013609;28;20045;-69
2022/12/21 01:08:03;;;;;;;51.70;19.80;;;8.30;99.90;;;;;;5013303;28;20057;-70
2022/12/21 01:10:29;;;;;;;49.15;19.77;;;8.20;99.90;;;;;;5019003;28;20038;-68
2022/12/21 01:12:55;;;;;;;53.72;21.27;;;8.20;99.90;;;;;;5012745;28;20386;-68
2022/12/21 01:15:21;;;;;;;52.55;19.60;;;8.20;99.90;;;;;;5014405;28;20030;-68
2022/12/21 01:17:47;;;;;;;49.53;19.65;;;8.20;99.90;;;;;;5012590;28;20037;-71
2022/12/21 01:20:13;;;;;;;55.08;20.45;;;8.20;99.90;;;;;;5012390;28;20466;-70
2022/12/21 01:22:38;;;;;;;50.03;20.25;;;8.30;99.90;;;;;;5012268;28;20096;-69
2022/12/21 01:25:04;;;;;;;48.00;18.65;;;8.20;99.90;;;;;;5013656;28;20022;-69
2022/12/21 01:27:29;;;;;;;52.17;20.48;;;8.30;99.90;;;;;;5011882;28;20546;-70
2022/12/21 01:29:55;;;;;;;56.10;21.30;;;8.20;99.90;;;;;;5010531;28;20445;-70
2022/12/21 01:32:20;;;;;;;47.28;18.45;;;8.30;99.90;;;;;;5010552;28;20040;-70
2022/12/21 01:34:46;;;;;;;46.25;18.40;;;8.20;99.90;;;;;;5001340;28;20037;-69
2022/12/21 01:37:11;;;;;;;72.50;19.38;;;8.20;99.90;;;;;;5006780;28;20513;-68
2022/12/21 01:39:37;;;;;;;50.25;19.48;;;8.20;99.90;;;;;;5010354;28;20038;-69
2022/12/21 01:42:02;;;;;;;73.30;19.52;;;8.10;99.90;;;;;;5010532;28;20037;-68
2022/12/21 01:45:06;;;;;;;60.85;19.13;;;8.10;99.90;;;;;;5006626;28;20046;-73
2022/12/21 01:47:43;;;;;;;69.97;17.90;;;8.10;99.90;;;;;;5009819;28;20054;-69
2022/12/21 01:50:34;;;;;;;65.82;17.33;;;8.00;99.90;;;;;;5003846;28;20042;-72
2022/12/21 01:53:05;;;;;;;45.60;17.75;;;8.00;99.90;;;;;;5006894;28;20033;-68
2022/12/21 01:55:31;;;;;;;58.28;18.02;;;8.00;99.90;;;;;;5003192;28;20421;-72
2022/12/21 01:57:59;;;;;;;88.85;19.15;;;8.00;99.90;;;;;;5005433;28;20132;-71
2022/12/21 02:00:24;;;;;;;181.55;20.33;;;7.90;99.90;;;;;;5008607;28;20175;-69
2022/12/21 02:02:57;;;;;;;346.00;23.83;;;7.90;99.90;;;;;;5012152;28;20526;-68
2022/12/21 02:05:28;;;;;;;42.90;15.23;;;7.80;99.90;;;;;;5006543;28;20037;-71
2022/12/21 02:07:58;;;;;;;69.45;16.38;;;7.80;99.90;;;;;;5013070;28;20496;-68
2022/12/21 02:10:23;;;;;;;78.95;15.13;;;7.80;99.90;;;;;;5011579;28;20493;-70
2022/12/21 02:12:54;;;;;;;121.75;16.45;;;7.80;99.90;;;;;;5010704;28;20034;-71
2022/12/21 02:15:28;;;;;;;275.83;20.40;;;7.80;99.90;;;;;;5006244;28;20076;-69
2022/12/21 02:18:12;;;;;;;467.35;24.17;;;7.70;99.90;;;;;;5006450;28;21435;-72
2022/12/21 02:21:01;;;;;;;315.00;19.38;;;7.60;99.90;;;;;;5010419;28;20394;-68
2022/12/21 02:24:03;;;;;;;379.73;22.92;;;7.60;99.90;;;;;;5021015;28;20062;-71
2022/12/21 02:27:00;;;;;;;206.63;17.38;;;7.70;99.90;;;;;;5010997;28;20022;-70
2022/12/21 02:29:55;;;;;;;59.90;12.25;;;7.60;99.90;;;;;;5008890;28;20045;-68
2022/12/21 02:32:33;;;;;;;191.02;15.75;;;7.60;99.90;;;;;;5009101;28;20087;-71
2022/12/21 02:34:58;;;;;;;327.70;18.88;;;7.60;99.90;;;;;;5007382;28;20467;-68
2022/12/21 02:37:35;;;;;;;273.30;16.55;;;7.60;99.90;;;;;;5011236;28;20030;-69
2022/12/21 02:40:20;;;;;;;343.88;17.77;;;7.60;99.90;;;;;;5009269;28;20347;-70
2022/12/21 02:46:12;;;;;;;176.88;13.73;;;7.50;99.90;;;;;;5009105;28;20541;-71
2022/12/21 02:48:59;;;;;;;130.43;13.23;;;7.50;99.90;;;;;;5004174;28;20460;-69
2022/12/21 02:51:38;;;;;;;308.83;18.75;;;7.50;99.90;;;;;;5002323;28;20034;-71
2022/12/21 02:54:03;;;;;;;240.90;16.58;;;7.60;99.90;;;;;;4999413;28;20470;-70
2022/12/21 02:56:29;;;;;;;208.93;16.35;;;7.60;99.90;;;;;;5010200;28;20026;-69
2022/12/21 02:58:55;;;;;;;317.75;21.33;;;7.60;99.90;;;;;;5008866;28;20038;-69
2022/12/21 03:01:42;;;;;;;250.30;18.42;;;7.60;99.90;;;;;;5003563;28;20022;-68
2022/12/21 03:04:26;;;;;;;367.65;21.80;;;7.60;99.90;;;;;;5006360;28;20056;-69
2022/12/21 03:07:01;;;;;;;195.52;18.10;;;7.60;99.90;;;;;;5004681;28;20036;-68
2022/12/21 03:09:42;;;;;;;143.50;19.15;;;7.60;99.90;;;;;;5008625;28;20049;-69
2022/12/21 03:12:26;;;;;;;273.73;21.10;;;7.60;99.90;;;;;;5010902;28;20355;-69
2022/12/21 03:15:11;;;;;;;231.25;20.98;;;7.60;99.90;;;;;;5009568;28;20038;-68
2022/12/21 03:17:59;;;;;;;322.50;24.05;;;7.60;99.90;;;;;;5006867;28;20049;-69
2022/12/21 03:20:35;;;;;;;297.45;24.00;;;7.60;99.90;;;;;;5005646;28;20037;-68
2022/12/21 03:23:17;;;;;;;297.15;23.60;;;7.60;99.90;;;;;;5073671;28;20382;-69
2022/12/21 03:25:42;;;;;;;295.42;24.83;;;7.60;99.90;;;;;;5047820;28;20475;-71
2022/12/21 03:28:13;;;;;;;301.95;25.30;;;7.60;99.90;;;;;;5045189;28;20037;-71
2022/12/21 03:30:45;;;;;;;299.10;26.23;;;7.60;99.90;;;;;;5050079;28;20082;-70
2022/12/21 03:33:15;;;;;;;291.52;25.67;;;7.60;99.90;;;;;;5046497;28;20481;-69
2022/12/21 03:35:44;;;;;;;288.73;25.10;;;7.60;99.90;;;;;;5047598;28;20028;-73
2022/12/21 03:38:30;;;;;;;256.40;23.75;;;7.60;99.90;;;;;;5047733;28;20048;-70
2022/12/21 03:40:59;;;;;;;201.75;22.67;;;7.60;99.90;;;;;;5043320;28;20033;-72
2022/12/21 03:43:32;;;;;;;267.58;25.98;;;7.60;99.90;;;;;;5052153;28;20029;-70
2022/12/21 03:46:03;;;;;;;329.20;27.15;;;7.60;99.90;;;;;;5052046;28;20033;-70
2022/12/21 03:48:40;;;;;;;412.33;29.35;;;7.60;99.90;;;;;;5058033;28;20104;-71
2022/12/21 03:51:14;;;;;;;315.73;27.63;;;7.60;99.90;;;;;;5046081;28;20549;-70
2022/12/21 03:53:49;;;;;;;353.50;27.85;;;7.60;99.90;;;;;;5046038;28;20394;-70
2022/12/21 03:56:27;;;;;;;386.65;28.17;;;7.60;99.90;;;;;;5043751;28;20603;-69
2022/12/21 03:58:52;;;;;;;386.80;29.60;;;7.60;99.90;;;;;;5047054;28;20041;-69
2022/12/21 04:01:41;;;;;;;466.70;30.25;;;7.60;99.90;;;;;;5046793;28;20480;-70
2022/12/21 04:04:22;;;;;;;380.50;27.98;;;7.50;99.90;;;;;;5044860;28;20033;-70
2022/12/21 04:06:49;;;;;;;318.58;25.20;;;7.50;99.90;;;;;;5044803;28;20048;-73
2022/12/21 04:09:15;;;;;;;365.88;27.88;;;7.50;99.90;;;;;;5046091;28;20030;-70
2022/12/21 04:14:27;;;;;;;450.60;30.38;;;7.50;99.90;;;;;;5045923;28;20036;-69
2022/12/21 04:16:52;;;;;;;350.50;27.05;;;7.50;99.90;;;;;;5047161;28;20377;-70
2022/12/21 04:22:02;;;;;;;331.73;26.20;;;7.50;99.90;;;;;;5039259;28;20079;-74
2022/12/21 04:29:56;;;;;;;246.45;24.90;;;7.50;99.90;;;;;;5036577;28;20033;-71
2022/12/21 04:32:21;;;;;;;159.60;22.40;;;7.50;99.90;;;;;;5036320;28;20053;-70
2022/12/21 04:34:47;;;;;;;327.92;28.08;;;7.50;99.90;;;;;;5023928;28;20481;-69
2022/12/21 04:37:30;;;;;;;242.20;24.83;;;7.50;99.90;;;;;;5030523;28;20040;-74
2022/12/21 04:39:56;;;;;;;313.27;27.08;;;7.50;99.90;;;;;;5029458;28;20025;-71
2022/12/21 04:42:22;;;;;;;171.35;23.08;;;7.50;99.90;;;;;;5029403;28;20413;-70
2022/12/21 04:44:48;;;;;;;126.68;22.52;;;7.40;99.90;;;;;;5030625;28;20049;-70
2022/12/21 04:47:13;;;;;;;178.50;23.63;;;7.50;99.90;;;;;;5032226;28;20458;-70
2022/12/21 04:49:39;;;;;;;292.23;27.10;;;7.50;99.90;;;;;;5027153;28;20031;-70
2022/12/21 04:52:04;;;;;;;128.52;22.35;;;7.50;99.90;;;;;;5027431;28;20079;-73
2022/12/21 04:54:30;;;;;;;117.95;22.60;;;7.40;99.90;;;;;;5028550;28;20120;-69
2022/12/21 04:56:55;;;;;;;92.78;20.95;;;7.40;99.90;;;;;;5025513;28;20440;-71
2022/12/21 04:59:20;;;;;;;84.75;19.60;;;7.40;99.90;;;;;;5027823;28;20033;-70
2022/12/21 05:01:46;;;;;;;76.53;20.52;;;7.40;99.90;;;;;;5023795;28;20037;-73
2022/12/21 05:04:11;;;;;;;94.95;21.70;;;7.30;99.90;;;;;;5024000;28;20489;-70
2022/12/21 05:06:37;;;;;;;72.80;19.83;;;7.40;99.90;;;;;;5028980;28;20071;-70
2022/12/21 05:09:03;;;;;;;89.93;21.00;;;7.30;99.90;;;;;;5027749;28;20033;-70
2022/12/21 05:11:28;;;;;;;93.90;20.92;;;7.30;99.90;;;;;;5029448;28;20462;-75
2022/12/21 05:13:53;;;;;;;66.88;19.55;;;7.30;99.90;;;;;;5030241;28;20018;-76
2022/12/21 05:16:22;;;;;;;71.53;19.20;;;7.30;99.90;;;;;;5028390;28;20064;-70
2022/12/21 05:18:48;;;;;;;61.00;17.70;;;7.30;99.90;;;;;;5029380;28;20081;-70
2022/12/21 05:21:14;;;;;;;75.72;18.27;;;7.30;99.90;;;;;;5028705;28;20045;-69
2022/12/21 05:23:40;;;;;;;63.47;17.80;;;7.30;99.90;;;;;;5025869;28;20656;-69
2022/12/21 05:26:07;;;;;;;78.35;18.17;;;7.30;99.90;;;;;;5021710;28;20038;-74
2022/12/21 05:28:32;;;;;;;69.13;18.02;;;7.30;99.90;;;;;;5027898;28;20079;-71
2022/12/21 05:30:58;;;;;;;70.55;19.25;;;7.30;99.90;;;;;;5027729;28;20030;-69
2022/12/21 05:33:23;;;;;;;76.70;18.15;;;7.20;99.90;;;;;;5030225;28;20029;-72
2022/12/21 05:35:49;;;;;;;61.63;17.15;;;7.30;99.90;;;;;;5021794;28;20061;-72
2022/12/21 05:38:15;;;;;;;61.17;17.63;;;7.20;99.90;;;;;;5031042;28;20057;-72
2022/12/21 05:40:48;;;;;;;90.32;18.50;;;7.20;99.90;;;;;;5027568;28;20069;-71
2022/12/21 05:43:14;;;;;;;111.43;20.20;;;7.20;99.90;;;;;;5026574;28;20029;-72
2022/12/21 05:45:40;;;;;;;180.45;19.50;;;7.10;99.90;;;;;;5019621;28;20033;-69
2022/12/21 05:48:05;;;;;;;109.35;17.75;;;7.10;99.90;;;;;;5028019;28;20049;-70
2022/12/21 05:50:31;;;;;;;105.30;17.77;;;7.10;99.90;;;;;;5026267;28;20484;-69
2022/12/21 05:52:56;;;;;;;81.88;17.40;;;7.10;99.90;;;;;;5026600;28;20041;-70
2022/12/21 05:55:22;;;;;;;77.63;18.30;;;7.10;99.90;;;;;;5022748;28;20029;-70
2022/12/21 05:57:47;;;;;;;97.63;19.20;;;7.10;99.90;;;;;;5024945;28;20410;-69
2022/12/21 06:00:13;;;;;;;164.45;21.00;;;7.10;99.90;;;;;;5027563;28;20052;-69
2022/12/21 06:02:40;;;;;;;391.52;26.40;;;7.10;99.90;;;;;;5027515;28;20110;-69
2022/12/21 06:05:06;;;;;;;310.10;22.52;;;7.10;99.90;;;;;;5022137;28;20100;-71
2022/12/21 06:07:31;;;;;;;387.75;26.15;;;7.00;99.90;;;;;;5024560;28;20482;-69
2022/12/21 06:09:57;;;;;;;279.50;22.45;;;7.00;99.90;;;;;;5024778;28;20394;-70
2022/12/21 06:12:22;;;;;;;346.17;24.38;;;7.00;99.90;;;;;;5020963;28;20682;-69
2022/12/21 06:14:47;;;;;;;305.13;22.15;;;7.00;99.90;;;;;;5029289;28;20033;-69
2022/12/21 06:17:13;;;;;;;373.95;26.05;;;7.00;99.90;;;;;;5027257;28;20680;-71
2022/12/21 06:19:38;;;;;;;483.60;28.58;;;6.90;99.90;;;;;;5028476;28;20033;-70
2022/12/21 06:22:04;;;;;;;252.57;21.30;;;7.00;99.90;;;;;;5023891;28;20064;-70
2022/12/21 06:24:29;;;;;;;240.70;19.67;;;6.90;99.90;;;;;;5031371;28;20064;-70
2022/12/21 06:26:55;;;;;;;165.05;18.40;;;6.90;99.90;;;;;;5028636;28;20053;-70
2022/12/21 06:29:20;;;;;;;145.55;18.20;;;6.90;99.90;;;;;;5030293;28;20522;-74
2022/12/21 06:31:46;;;;;;;192.38;19.40;;;6.90;99.90;;;;;;5025000;28;20056;-71
2022/12/21 06:34:12;;;;;;;209.10;19.00;;;6.90;99.90;;;;;;5023873;28;20026;-71
2022/12/21 06:36:37;;;;;;;321.20;23.50;;;6.90;99.90;;;;;;5023973;28;20113;-71
2022/12/21 06:39:03;;;;;;;221.20;19.90;;;6.90;99.90;;;;;;5023736;28;20109;-71
2022/12/21 06:41:29;;;;;;;273.13;21.60;;;6.90;99.90;;;;;;5024808;28;20044;-72
2022/12/21 06:43:54;;;;;;;252.77;20.05;;;6.90;99.90;;;;;;5027359;28;20168;-71
2022/12/21 06:46:20;;;;;;;253.70;20.40;;;6.80;99.90;;;;;;5025627;28;20470;-71
2022/12/21 06:48:46;;;;;;;212.80;20.88;;;6.80;99.90;;;;;;5029919;28;20044;-71
2022/12/21 06:51:14;;;;;;;217.10;20.05;;;6.80;99.90;;;;;;5019871;28;20041;-71
2022/12/21 06:53:42;;;;;;;220.75;18.90;;;6.80;99.90;;;;;;5025669;28;20087;-70
2022/12/21 06:56:26;;;;;;;201.80;19.63;;;6.90;99.90;;;;;;5028838;28;20291;-71
2022/12/21 06:58:53;;;;;;;160.07;18.02;;;6.80;99.90;;;;;;5024691;28;20064;-69
2022/12/21 07:01:21;;;;;;;126.88;16.58;;;6.90;99.90;;;;;;5029425;28;20045;-70
2022/12/21 07:03:47;;;;;;;279.73;20.60;;;6.80;99.90;;;;;;5024458;28;20481;-69
2022/12/21 07:06:14;;;;;;;187.27;18.48;;;6.80;99.90;;;;;;5017266;28;20041;-69
2022/12/21 07:08:40;;;;;;;320.75;22.90;;;6.80;99.90;;;;;;5030282;28;20120;-69
2022/12/21 07:11:09;;;;;;;175.57;18.40;;;6.80;99.90;;;;;;5031058;28;20108;-69
2022/12/21 07:13:36;;;;;;;309.52;23.55;;;6.80;99.90;;;;;;5020899;28;20407;-69
2022/12/21 07:16:02;;;;;;;215.38;19.80;;;6.80;99.90;;;;;;5028635;28;20037;-69
2022/12/21 07:18:28;;;;;;;189.48;18.55;;;6.80;99.90;;;;;;5028382;28;20061;-71
2022/12/21 07:20:58;;;;;;;235.48;20.45;;;6.80;99.90;;;;;;5021767;28;21573;-69
2022/12/21 07:23:25;;;;;;;236.82;18.88;;;6.80;99.90;;;;;;5014659;28;20083;-69
2022/12/21 07:25:51;;;;;;;275.90;21.20;;;6.80;99.90;;;;;;5023100;28;20025;-69
2022/12/21 07:28:16;;;;;;;249.10;19.10;;;6.70;99.90;;;;;;5019819;28;20029;-69
2022/12/21 07:30:47;;;;;;;218.35;19.23;;;6.70;99.90;;;;;;5020189;28;20057;-70
2022/12/21 07:33:16;;;;;;;239.68;19.58;;;6.70;99.90;;;;;;5022227;28;20025;-70
2022/12/21 07:35:42;;;;;;;198.57;18.88;;;6.70;99.90;;;;;;5025107;28;20725;-71
2022/12/21 07:38:08;;;;;;;212.95;20.38;;;6.80;99.90;;;;;;5015681;28;20025;-71
2022/12/21 07:40:34;;;;;;;140.98;17.95;;;6.80;99.90;;;;;;5021436;28;20037;-69
2022/12/21 07:42:59;;;;;;;182.98;17.55;;;6.70;99.90;;;;;;5025528;28;20037;-70
2022/12/21 07:45:25;;;;;;;247.57;19.75;;;6.80;99.90;;;;;;5028929;28;20486;-76
2022/12/21 07:47:50;;;;;;;173.48;18.05;;;6.80;99.90;;;;;;5028957;28;20125;-75
2022/12/21 07:50:16;;;;;;;196.13;18.52;;;6.80;99.90;;;;;;5028307;28;20033;-71
2022/12/21 07:52:41;;;;;;;206.23;17.40;;;6.80;99.90;;;;;;5030639;28;20038;-72
2022/12/21 07:55:07;;;;;;;298.30;22.40;;;6.80;99.90;;;;;;5030558;28;20064;-73
2022/12/21 07:57:33;;;;;;;223.90;18.73;;;6.80;99.90;;;;;;5026378;28;20120;-72
2022/12/21 07:59:58;;;;;;;199.38;18.08;;;6.80;99.90;;;;;;5021694;28;20429;-72
2022/12/21 08:02:24;;;;;;;198.52;18.48;;;6.80;99.90;;;;;;5023086;28;20033;-72
2022/12/21 08:04:49;;;;;;;223.13;20.23;;;6.80;99.90;;;;;;5025252;28;20076;-73
2022/12/21 08:07:15;;;;;;;226.13;19.25;;;6.90;99.90;;;;;;5021575;28;20036;-73
2022/12/21 08:09:40;;;;;;;291.73;21.23;;;6.90;99.90;;;;;;5029664;28;20060;-72
2022/12/21 08:12:06;;;;;;;238.77;21.73;;;6.90;99.90;;;;;;5029510;28;20045;-73
2022/12/21 08:14:31;;;;;;;218.20;20.15;;;6.90;99.90;;;;;;5027477;28;20030;-73
2022/12/21 08:16:57;;;;;;;204.32;19.30;;;6.90;99.90;;;;;;5033713;28;20033;-73
2022/12/21 08:19:22;;;;;;;198.00;20.58;;;6.90;99.90;;;;;;5032864;28;20033;-72
2022/12/21 08:21:48;;;;;;;198.00;19.02;;;6.90;99.90;;;;;;5031279;28;20053;-72
2022/12/21 08:24:13;;;;;;;228.85;19.67;;;6.90;99.90;;;;;;5030785;28;20033;-73
2022/12/21 08:26:39;;;;;;;208.25;19.98;;;6.90;99.90;;;;;;5032199;28;20025;-73
2022/12/21 08:29:05;;;;;;;336.23;24.25;;;6.90;99.90;;;;;;5029871;28;20468;-72
2022/12/21 08:31:31;;;;;;;316.58;21.85;;;6.90;99.90;;;;;;5027241;28;20052;-73
2022/12/21 08:33:56;;;;;;;289.10;20.67;;;6.90;99.90;;;;;;5032795;28;20034;-73
2022/12/21 08:36:23;;;;;;;295.73;20.13;;;6.90;99.90;;;;;;5031509;28;20116;-73
2022/12/21 08:38:51;;;;;;;183.07;19.50;;;6.90;99.90;;;;;;5031510;28;20075;-73
2022/12/21 08:41:17;;;;;;;171.02;17.63;;;6.90;99.90;;;;;;5032227;28;20037;-73
2022/12/21 08:43:43;;;;;;;237.77;19.98;;;7.00;99.90;;;;;;5030401;28;20026;-72
2022/12/21 08:46:10;;;;;;;171.38;18.35;;;6.90;99.90;;;;;;5033779;28;20025;-73
2022/12/21 08:48:36;;;;;;;216.20;18.85;;;6.90;99.90;;;;;;5031398;28;20029;-73
2022/12/21 08:51:03;;;;;;;229.45;19.92;;;6.90;99.90;;;;;;5031791;28;20037;-72
2022/12/21 08:53:29;;;;;;;140.70;17.40;;;7.00;99.90;;;;;;5024233;28;20028;-72
2022/12/21 08:55:55;;;;;;;205.25;18.23;;;6.90;99.90;;;;;;5031784;28;20033;-73
2022/12/21 08:58:22;;;;;;;120.68;17.10;;;6.90;99.90;;;;;;5032133;28;20496;-73
2022/12/21 09:00:51;;;;;;;116.40;18.02;;;7.00;99.90;;;;;;5025101;28;20032;-73
2022/12/21 09:03:16;;;;;;;177.55;19.13;;;7.00;99.90;;;;;;5029922;28;20115;-72
2022/12/21 09:05:42;;;;;;;220.52;20.58;;;7.00;99.90;;;;;;5029933;28;20026;-72
2022/12/21 09:08:08;;;;;;;186.88;19.63;;;7.00;99.90;;;;;;5033680;28;20029;-72
2022/12/21 09:10:34;;;;;;;335.23;24.23;;;7.00;99.90;;;;;;5025089;28;20037;-72
2022/12/21 09:12:59;;;;;;;288.70;23.60;;;7.00;99.90;;;;;;5020671;28;20045;-72
2022/12/21 09:15:25;;;;;;;234.35;22.13;;;7.00;99.90;;;;;;5029913;28;20488;-72
2022/12/21 09:17:50;;;;;;;218.13;21.13;;;7.00;99.90;;;;;;5032978;28;20087;-72
2022/12/21 09:20:17;;;;;;;236.95;23.90;;;7.00;99.90;;;;;;5030748;28;20037;-72
2022/12/21 09:22:42;;;;;;;154.15;21.80;;;7.00;99.90;;;;;;5028951;28;20446;-72
2022/12/21 09:25:08;;;;;;;171.30;21.08;;;7.10;99.90;;;;;;5026005;28;20041;-72
2022/12/21 09:27:34;;;;;;;222.52;22.67;;;7.10;99.90;;;;;;5032811;28;20037;-72
2022/12/21 09:29:59;;;;;;;214.07;21.35;;;7.10;99.90;;;;;;5031768;28;20120;-72
2022/12/21 09:32:25;;;;;;;116.47;19.65;;;7.10;99.90;;;;;;5027612;28;20115;-72
2022/12/21 09:34:51;;;;;;;174.02;20.85;;;7.10;99.90;;;;;;5030196;28;20026;-72
2022/12/21 09:37:17;;;;;;;136.68;19.52;;;7.10;99.90;;;;;;5031126;28;20068;-73
2022/12/21 09:39:43;;;;;;;177.40;22.10;;;7.10;99.90;;;;;;5031633;28;20021;-73
2022/12/21 09:42:46;;;;;;;167.88;22.00;;;7.10;99.90;;;;;;5031952;28;20034;-72
2022/12/21 09:45:34;;;;;;;160.73;20.92;;;7.20;99.90;;;;;;5031057;28;20477;-73
2022/12/21 09:48:04;;;;;;;201.30;20.50;;;7.20;99.90;;;;;;5030173;28;20045;-72
2022/12/21 09:50:43;;;;;;;163.90;19.50;;;7.20;99.90;;;;;;5030009;28;20029;-72
2022/12/21 09:53:25;;;;;;;176.13;19.60;;;7.20;99.90;;;;;;5031683;28;20045;-72
2022/12/21 09:55:54;;;;;;;110.47;19.80;;;7.30;99.90;;;;;;5031623;28;20116;-72
2022/12/21 09:58:31;;;;;;;216.57;22.63;;;7.20;99.90;;;;;;5029376;28;20278;-72
2022/12/21 10:01:15;;;;;;;143.82;20.08;;;7.30;99.90;;;;;;5028984;28;20401;-72
2022/12/21 10:04:06;;;;;;;188.45;19.50;;;7.30;99.90;;;;;;5022504;28;20037;-73
2022/12/21 10:06:56;;;;;;;127.00;19.67;;;7.40;99.90;;;;;;5005226;28;20041;-73
2022/12/21 10:09:39;;;;;;;140.35;20.73;;;7.40;99.90;;;;;;5030729;28;20021;-74
2022/12/21 10:12:25;;;;;;;152.57;20.30;;;7.50;99.90;;;;;;5023410;28;20504;-73
2022/12/21 10:15:24;;;;;;;116.25;19.65;;;7.50;99.90;;;;;;5030706;28;20359;-73
2022/12/21 10:18:11;;;;;;;94.65;19.77;;;7.50;99.90;;;;;;5031786;28;20087;-73
2022/12/21 10:20:56;;;;;;;113.22;19.80;;;7.50;99.90;;;;;;5030160;28;20119;-73
2022/12/21 10:23:59;;;;;;;104.78;18.77;;;7.50;99.90;;;;;;5031032;28;20091;-74
2022/12/21 10:26:26;;;;;;;89.07;18.77;;;7.50;99.90;;;;;;5017584;28;20048;-73
2022/12/21 10:29:16;;;;;;;76.93;19.40;;;7.50;99.90;;;;;;5030839;28;20036;-73
2022/12/21 10:31:46;;;;;;;55.05;19.45;;;7.50;99.90;;;;;;5021627;28;20034;-73
2022/12/21 10:34:35;;;;;;;56.17;18.20;;;7.50;99.90;;;;;;5028572;28;20025;-73
2022/12/21 10:37:11;;;;;;;56.90;18.88;;;7.50;99.90;;;;;;5027606;28;20101;-73
2022/12/21 10:39:36;;;;;;;51.25;18.92;;;7.50;99.90;;;;;;5030036;28;20021;-73
2022/12/21 10:42:14;;;;;;;51.30;17.25;;;7.60;99.90;;;;;;5031365;28;20034;-73
2022/12/21 10:44:40;;;;;;;42.83;17.33;;;7.60;99.90;;;;;;5021608;28;20478;-73
2022/12/21 10:47:18;;;;;;;38.50;17.30;;;7.60;99.90;;;;;;5029818;28;20029;-73
2022/12/21 10:50:09;;;;;;;45.20;16.73;;;7.50;99.90;;;;;;5029792;28;20099;-74
2022/12/21 10:52:41;;;;;;;;;;;7.40;99.90;;;;;;5026520;28;20334;-73
2022/12/21 10:55:18;;;;;;;47.88;17.20;;;7.50;99.90;;;;;;5031422;28;19911;-74
2022/12/21 10:57:46;;;;;;;41.03;18.10;;;7.70;99.90;;;;;;5030109;28;20029;-74
2022/12/21 11:00:33;;;;;;;37.17;16.88;;;7.70;99.90;;;;;;5029812;28;20548;-74
2022/12/21 11:03:04;;;;;;;43.97;17.80;;;7.60;99.90;;;;;;5028947;28;20033;-74
2022/12/21 11:05:39;;;;;;;38.83;16.55;;;7.60;99.90;;;;;;5029324;28;20119;-74
2022/12/21 11:08:18;;;;;;;37.33;16.10;;;7.70;99.90;;;;;;5030043;28;20544;-74
2022/12/21 11:10:47;;;;;;;43.63;17.00;;;7.60;99.90;;;;;;5025144;28;20033;-74
2022/12/21 11:13:14;;;;;;;40.38;16.88;;;7.50;99.90;;;;;;5029806;28;20029;-73
2022/12/21 11:15:55;;;;;;;38.60;15.52;;;7.50;99.90;;;;;;5031174;28;20087;-73
2022/12/21 11:18:43;;;;;;;41.17;16.63;;;7.50;99.90;;;;;;5028557;28;20086;-73
2022/12/21 11:21:29;;;;;;;36.00;16.42;;;7.50;99.90;;;;;;5025454;28;20060;-73
2022/12/21 11:23:57;;;;;;;36.45;15.65;;;7.50;99.90;;;;;;5024029;28;20112;-73
2022/12/21 11:26:32;;;;;;;40.65;16.48;;;7.50;99.90;;;;;;5031453;28;20037;-73
2022/12/21 11:29:00;;;;;;;40.22;17.20;;;7.50;99.90;;;;;;5028231;28;20029;-73
2022/12/21 11:31:28;;;;;;;37.55;16.92;;;7.50;99.90;;;;;;5026592;28;20033;-73
2022/12/21 11:33:54;;;;;;;40.05;16.00;;;7.50;99.90;;;;;;5029844;28;20025;-73
2022/12/21 11:36:19;;;;;;;40.75;16.95;;;7.50;99.90;;;;;;5029148;28;20052;-73
2022/12/21 11:38:45;;;;;;;41.95;17.15;;;7.50;99.90;;;;;;5030959;28;20135;-73
2022/12/21 11:41:29;;;;;;;39.53;17.02;;;7.50;99.90;;;;;;5029885;28;20444;-73
2022/12/21 11:43:55;;;;;;;44.15;16.38;;;7.50;99.90;;;;;;5024293;28;20084;-74
2022/12/21 11:46:47;;;;;;;43.00;17.45;;;7.50;99.90;;;;;;5030622;28;20476;-74
2022/12/21 11:49:19;;;;;;;;;;;7.50;99.90;;;;;;5032980;28;20030;-74
2022/12/21 11:52:00;;;;;;;43.70;16.85;;;7.50;99.90;;;;;;5033856;28;20293;-73
2022/12/21 11:54:37;;;;;;;45.47;19.05;;;7.50;99.90;;;;;;5032774;28;20092;-74
2022/12/21 11:57:36;;;;;;;45.70;18.75;;;7.50;99.90;;;;;;5035175;28;20763;-73
2022/12/21 12:00:07;;;;;;;47.50;19.70;;;7.50;99.90;;;;;;5031185;28;20037;-73
2022/12/21 12:02:57;;;;;;;52.85;20.63;;;7.50;99.90;;;;;;5033171;28;20504;-74
2022/12/21 12:05:49;;;;;;;55.42;20.27;;;7.50;99.90;;;;;;5029777;28;20037;-73
2022/12/21 12:08:26;;;;;;;48.00;20.42;;;7.50;99.90;;;;;;5017969;28;20030;-73
2022/12/21 12:11:18;;;;;;;47.58;19.75;;;7.50;99.90;;;;;;5034244;28;20386;-74
2022/12/21 12:14:02;;;;;;;50.63;20.00;;;7.50;99.90;;;;;;5004977;28;20053;-74
2022/12/21 12:16:32;;;;;;;44.63;20.80;;;7.40;99.90;;;;;;5034433;28;20367;-74
2022/12/21 12:19:39;;;;;;;47.95;19.95;;;7.30;99.90;;;;;;5032700;28;20097;-75
2022/12/21 12:22:31;;;;;;;45.95;19.15;;;7.30;99.90;;;;;;5031515;28;20064;-74
2022/12/21 12:25:19;;;;;;;42.97;17.88;;;7.30;99.90;;;;;;5025016;28;20052;-74
2022/12/21 12:28:02;;;;;;;46.65;20.30;;;7.30;99.90;;;;;;5029766;28;20029;-73
2022/12/21 12:31:12;;;;;;;45.50;20.35;;;7.30;99.90;;;;;;5030024;28;20034;-74
2022/12/21 12:34:17;;;;;;;43.88;19.05;;;7.30;99.90;;;;;;5030870;28;20163;-74
2022/12/21 12:36:54;;;;;;;44.88;18.52;;;7.30;99.90;;;;;;5015800;28;20033;-74
2022/12/21 12:39:26;;;;;;;42.33;18.70;;;7.20;99.90;;;;;;5032476;28;20083;-74
2022/12/21 12:42:06;;;;;;;47.20;18.55;;;7.30;99.90;;;;;;5034332;28;20472;-74
2022/12/21 12:44:50;;;;;;;44.10;19.17;;;7.30;99.90;;;;;;5031027;28;20481;-74
2022/12/21 12:47:25;;;;;;;44.80;18.13;;;7.30;99.90;;;;;;5032909;28;20029;-73
2022/12/21 12:50:19;;;;;;;46.13;18.70;;;7.30;99.90;;;;;;5032370;28;20029;-74
2022/12/21 12:52:58;;;;;;;38.72;17.80;;;7.30;99.90;;;;;;5032371;28;20022;-74
2022/12/21 12:55:41;;;;;;;42.70;19.05;;;7.30;99.90;;;;;;5030609;28;20722;-74
2022/12/21 12:58:16;;;;;;;44.35;19.40;;;7.30;99.90;;;;;;5031150;28;20037;-74
2022/12/21 13:01:02;;;;;;;41.50;19.05;;;7.40;99.90;;;;;;5031266;28;20049;-74
2022/12/21 13:03:36;;;;;;;46.28;17.67;;;7.40;99.90;;;;;;5029429;28;20029;-74
2022/12/21 13:06:34;;;;;;;44.22;19.08;;;7.30;99.90;;;;;;5023424;28;20061;-74
2022/12/21 13:09:17;;;;;;;39.65;17.33;;;7.20;99.90;;;;;;5018738;28;20049;-74
2022/12/21 13:12:05;;;;;;;37.83;18.48;;;7.10;99.90;;;;;;5027323;28;20041;-74